sensor_id;sensor_type;location;lat;lon;timestamp;P1;durP1;ratioP1;P2;durP2;ratioP2
42600;SDS011;28229;48.856;9.088;2023-01-10T00:00:23;0.93;;;0.83;;
42600;SDS011;28229;48.856;9.088;2023-01-10T00:02:50;0.90;;;0.90;;
42600;SDS011;28229;48.856;9.088;2023-01-10T00:05:17;0.90;;;0.90;;
42600;SDS011;28229;48.856;9.088;2023-01-10T00:07:44;1.70;;;1.10;;
42600;SDS011;28229;48.856;9.088;2023-01-10T00:10:11;1.00;;;1.00;;
42600;SDS011;28229;48.856;9.088;2023-01-10T00:12:37;1.23;;;1.20;;
42600;SDS011;28229;48.856;9.088;2023-01-10T00:15:22;1.13;;;1.03;;
42600;SDS011;28229;48.856;9.088;2023-01-10T00:17:48;1.70;;;1.40;;
42600;SDS011;28229;48.856;9.088;2023-01-10T00:20:14;1.87;;;1.43;;
42600;SDS011;28229;48.856;9.088;2023-01-10T00:22:41;2.37;;;1.30;;
42600;SDS011;28229;48.856;9.088;2023-01-10T00:25:07;1.30;;;1.20;;
42600;SDS011;28229;48.856;9.088;2023-01-10T00:27:33;1.27;;;1.20;;
42600;SDS011;28229;48.856;9.088;2023-01-10T00:30:02;1.77;;;1.13;;
42600;SDS011;28229;48.856;9.088;2023-01-10T00:32:40;1.23;;;1.20;;
42600;SDS011;28229;48.856;9.088;2023-01-10T00:35:06;1.43;;;1.10;;
42600;SDS011;28229;48.856;9.088;2023-01-10T00:37:33;1.70;;;1.20;;
42600;SDS011;28229;48.856;9.088;2023-01-10T00:40:00;1.40;;;1.30;;
42600;SDS011;28229;48.856;9.088;2023-01-10T00:42:26;1.20;;;1.10;;
42600;SDS011;28229;48.856;9.088;2023-01-10T00:45:15;1.53;;;1.20;;
42600;SDS011;28229;48.856;9.088;2023-01-10T00:47:41;1.40;;;1.30;;
42600;SDS011;28229;48.856;9.088;2023-01-10T00:50:07;2.40;;;1.30;;
42600;SDS011;28229;48.856;9.088;2023-01-10T00:52:35;1.40;;;1.20;;
42600;SDS011;28229;48.856;9.088;2023-01-10T00:55:01;1.40;;;1.30;;
42600;SDS011;28229;48.856;9.088;2023-01-10T00:57:27;1.53;;;1.40;;
42600;SDS011;28229;48.856;9.088;2023-01-10T00:59:53;1.80;;;1.43;;
42600;SDS011;28229;48.856;9.088;2023-01-10T01:02:19;1.23;;;1.23;;
42600;SDS011;28229;48.856;9.088;2023-01-10T01:04:45;1.80;;;1.70;;
42600;SDS011;28229;48.856;9.088;2023-01-10T01:07:11;2.17;;;1.63;;
42600;SDS011;28229;48.856;9.088;2023-01-10T01:09:38;1.53;;;1.30;;
42600;SDS011;28229;48.856;9.088;2023-01-10T01:12:24;1.50;;;1.40;;
42600;SDS011;28229;48.856;9.088;2023-01-10T01:14:50;1.30;;;1.20;;
42600;SDS011;28229;48.856;9.088;2023-01-10T01:17:16;1.40;;;1.30;;
42600;SDS011;28229;48.856;9.088;2023-01-10T01:19:43;1.30;;;1.20;;
42600;SDS011;28229;48.856;9.088;2023-01-10T01:22:09;1.00;;;1.00;;
42600;SDS011;28229;48.856;9.088;2023-01-10T01:24:35;1.37;;;1.27;;
42600;SDS011;28229;48.856;9.088;2023-01-10T01:27:01;1.00;;;1.00;;
42600;SDS011;28229;48.856;9.088;2023-01-10T01:29:28;0.90;;;0.90;;
42600;SDS011;28229;48.856;9.088;2023-01-10T01:31:54;0.90;;;0.90;;
42600;SDS011;28229;48.856;9.088;2023-01-10T01:34:21;1.20;;;0.80;;
42600;SDS011;28229;48.856;9.088;2023-01-10T01:36:48;1.63;;;0.90;;
42600;SDS011;28229;48.856;9.088;2023-01-10T01:39:16;0.80;;;0.80;;
42600;SDS011;28229;48.856;9.088;2023-01-10T01:41:41;1.37;;;0.90;;
42600;SDS011;28229;48.856;9.088;2023-01-10T01:44:35;0.90;;;0.90;;
42600;SDS011;28229;48.856;9.088;2023-01-10T01:49:50;1.20;;;0.70;;
42600;SDS011;28229;48.856;9.088;2023-01-10T01:52:20;0.70;;;0.70;;
42600;SDS011;28229;48.856;9.088;2023-01-10T01:54:52;0.93;;;0.80;;
42600;SDS011;28229;48.856;9.088;2023-01-10T01:57:24;1.17;;;0.77;;
42600;SDS011;28229;48.856;9.088;2023-01-10T01:59:52;2.43;;;1.00;;
42600;SDS011;28229;48.856;9.088;2023-01-10T02:02:30;1.93;;;1.10;;
42600;SDS011;28229;48.856;9.088;2023-01-10T02:05:02;1.93;;;1.10;;
42600;SDS011;28229;48.856;9.088;2023-01-10T02:07:32;1.83;;;1.00;;
42600;SDS011;28229;48.856;9.088;2023-01-10T02:10:24;1.33;;;1.23;;
42600;SDS011;28229;48.856;9.088;2023-01-10T02:13:11;1.20;;;1.17;;
42600;SDS011;28229;48.856;9.088;2023-01-10T02:15:40;1.90;;;1.20;;
42600;SDS011;28229;48.856;9.088;2023-01-10T02:18:06;1.43;;;1.20;;
42600;SDS011;28229;48.856;9.088;2023-01-10T02:20:37;1.60;;;1.40;;
42600;SDS011;28229;48.856;9.088;2023-01-10T02:23:19;1.30;;;1.20;;
42600;SDS011;28229;48.856;9.088;2023-01-10T02:26:14;2.93;;;1.37;;
42600;SDS011;28229;48.856;9.088;2023-01-10T02:29:06;1.53;;;1.43;;
42600;SDS011;28229;48.856;9.088;2023-01-10T02:35:41;1.43;;;1.20;;
42600;SDS011;28229;48.856;9.088;2023-01-10T02:43:08;2.33;;;1.60;;
42600;SDS011;28229;48.856;9.088;2023-01-10T02:45:53;1.63;;;1.53;;
42600;SDS011;28229;48.856;9.088;2023-01-10T02:48:35;1.60;;;1.23;;
42600;SDS011;28229;48.856;9.088;2023-01-10T02:51:23;1.50;;;1.33;;
42600;SDS011;28229;48.856;9.088;2023-01-10T02:53:54;2.77;;;1.47;;
42600;SDS011;28229;48.856;9.088;2023-01-10T03:02:06;2.47;;;1.63;;
42600;SDS011;28229;48.856;9.088;2023-01-10T03:10:31;2.27;;;1.87;;
42600;SDS011;28229;48.856;9.088;2023-01-10T03:13:05;3.70;;;1.80;;
42600;SDS011;28229;48.856;9.088;2023-01-10T03:15:38;2.13;;;1.97;;
42600;SDS011;28229;48.856;9.088;2023-01-10T03:18:11;2.37;;;1.90;;
42600;SDS011;28229;48.856;9.088;2023-01-10T03:21:00;2.20;;;2.00;;
42600;SDS011;28229;48.856;9.088;2023-01-10T03:23:30;3.97;;;1.97;;
42600;SDS011;28229;48.856;9.088;2023-01-10T03:25:59;2.17;;;1.97;;
42600;SDS011;28229;48.856;9.088;2023-01-10T03:28:49;5.00;;;2.47;;
42600;SDS011;28229;48.856;9.088;2023-01-10T03:31:26;3.87;;;2.20;;
42600;SDS011;28229;48.856;9.088;2023-01-10T03:33:56;4.47;;;2.30;;
42600;SDS011;28229;48.856;9.088;2023-01-10T03:36:27;4.67;;;2.37;;
42600;SDS011;28229;48.856;9.088;2023-01-10T03:39:17;5.90;;;2.23;;
42600;SDS011;28229;48.856;9.088;2023-01-10T03:42:09;3.20;;;2.07;;
42600;SDS011;28229;48.856;9.088;2023-01-10T03:44:47;4.23;;;2.20;;
42600;SDS011;28229;48.856;9.088;2023-01-10T03:50:05;2.93;;;2.00;;
42600;SDS011;28229;48.856;9.088;2023-01-10T03:52:35;2.00;;;1.80;;
42600;SDS011;28229;48.856;9.088;2023-01-10T03:55:02;2.50;;;2.10;;
42600;SDS011;28229;48.856;9.088;2023-01-10T03:57:30;2.07;;;1.50;;
42600;SDS011;28229;48.856;9.088;2023-01-10T03:59:56;2.10;;;1.70;;
42600;SDS011;28229;48.856;9.088;2023-01-10T04:02:27;2.03;;;1.70;;
42600;SDS011;28229;48.856;9.088;2023-01-10T04:04:55;1.97;;;1.70;;
42600;SDS011;28229;48.856;9.088;2023-01-10T04:07:22;1.87;;;1.73;;
42600;SDS011;28229;48.856;9.088;2023-01-10T04:09:48;2.70;;;1.60;;
42600;SDS011;28229;48.856;9.088;2023-01-10T04:12:15;2.70;;;1.73;;
42600;SDS011;28229;48.856;9.088;2023-01-10T04:14:41;2.50;;;1.53;;
42600;SDS011;28229;48.856;9.088;2023-01-10T04:17:07;6.67;;;2.00;;
42600;SDS011;28229;48.856;9.088;2023-01-10T04:19:33;2.20;;;2.00;;
42600;SDS011;28229;48.856;9.088;2023-01-10T04:21:59;3.73;;;2.10;;
42600;SDS011;28229;48.856;9.088;2023-01-10T04:24:25;5.73;;;2.10;;
42600;SDS011;28229;48.856;9.088;2023-01-10T04:26:51;4.97;;;2.03;;
42600;SDS011;28229;48.856;9.088;2023-01-10T04:29:18;5.07;;;2.30;;
42600;SDS011;28229;48.856;9.088;2023-01-10T04:31:44;3.73;;;2.17;;
42600;SDS011;28229;48.856;9.088;2023-01-10T04:34:10;4.13;;;2.20;;
42600;SDS011;28229;48.856;9.088;2023-01-10T04:36:36;4.97;;;2.30;;
42600;SDS011;28229;48.856;9.088;2023-01-10T04:39:03;3.47;;;1.80;;
42600;SDS011;28229;48.856;9.088;2023-01-10T04:41:29;5.10;;;2.07;;
42600;SDS011;28229;48.856;9.088;2023-01-10T04:43:55;5.77;;;2.00;;
42600;SDS011;28229;48.856;9.088;2023-01-10T04:46:21;6.60;;;1.93;;
42600;SDS011;28229;48.856;9.088;2023-01-10T04:48:48;4.80;;;1.90;;
42600;SDS011;28229;48.856;9.088;2023-01-10T04:51:14;5.87;;;1.90;;
42600;SDS011;28229;48.856;9.088;2023-01-10T04:53:40;5.70;;;2.03;;
42600;SDS011;28229;48.856;9.088;2023-01-10T04:56:07;6.90;;;2.03;;
42600;SDS011;28229;48.856;9.088;2023-01-10T04:58:40;7.33;;;2.37;;
42600;SDS011;28229;48.856;9.088;2023-01-10T05:01:10;6.00;;;1.90;;
42600;SDS011;28229;48.856;9.088;2023-01-10T05:03:39;5.13;;;2.10;;
42600;SDS011;28229;48.856;9.088;2023-01-10T05:06:05;8.67;;;2.67;;
42600;SDS011;28229;48.856;9.088;2023-01-10T05:08:32;5.67;;;2.23;;
42600;SDS011;28229;48.856;9.088;2023-01-10T05:10:59;5.73;;;2.17;;
42600;SDS011;28229;48.856;9.088;2023-01-10T05:13:25;7.30;;;2.60;;
42600;SDS011;28229;48.856;9.088;2023-01-10T05:15:55;7.90;;;2.70;;
42600;SDS011;28229;48.856;9.088;2023-01-10T05:18:23;4.60;;;2.17;;
42600;SDS011;28229;48.856;9.088;2023-01-10T05:20:50;6.93;;;2.47;;
42600;SDS011;28229;48.856;9.088;2023-01-10T05:23:16;5.87;;;2.47;;
42600;SDS011;28229;48.856;9.088;2023-01-10T05:25:42;7.00;;;2.80;;
42600;SDS011;28229;48.856;9.088;2023-01-10T05:28:09;7.03;;;2.37;;
42600;SDS011;28229;48.856;9.088;2023-01-10T05:30:35;7.87;;;2.30;;
42600;SDS011;28229;48.856;9.088;2023-01-10T05:33:05;7.67;;;2.40;;
42600;SDS011;28229;48.856;9.088;2023-01-10T05:35:31;7.23;;;2.40;;
42600;SDS011;28229;48.856;9.088;2023-01-10T05:37:57;6.07;;;2.10;;
42600;SDS011;28229;48.856;9.088;2023-01-10T05:40:23;8.67;;;2.50;;
42600;SDS011;28229;48.856;9.088;2023-01-10T05:42:49;6.83;;;2.33;;
42600;SDS011;28229;48.856;9.088;2023-01-10T05:45:16;7.93;;;2.27;;
42600;SDS011;28229;48.856;9.088;2023-01-10T05:47:42;7.90;;;2.37;;
42600;SDS011;28229;48.856;9.088;2023-01-10T05:50:08;9.23;;;2.10;;
42600;SDS011;28229;48.856;9.088;2023-01-10T05:52:35;7.63;;;2.13;;
42600;SDS011;28229;48.856;9.088;2023-01-10T05:55:01;7.97;;;2.40;;
42600;SDS011;28229;48.856;9.088;2023-01-10T05:57:27;7.10;;;2.30;;
42600;SDS011;28229;48.856;9.088;2023-01-10T05:59:53;6.43;;;1.87;;
42600;SDS011;28229;48.856;9.088;2023-01-10T06:02:19;7.90;;;2.33;;
42600;SDS011;28229;48.856;9.088;2023-01-10T06:04:45;5.53;;;2.00;;
42600;SDS011;28229;48.856;9.088;2023-01-10T06:07:11;6.70;;;2.27;;
42600;SDS011;28229;48.856;9.088;2023-01-10T06:09:38;6.70;;;2.20;;
42600;SDS011;28229;48.856;9.088;2023-01-10T06:12:04;6.13;;;1.87;;
42600;SDS011;28229;48.856;9.088;2023-01-10T06:14:30;6.13;;;1.90;;
42600;SDS011;28229;48.856;9.088;2023-01-10T06:16:56;7.20;;;2.00;;
42600;SDS011;28229;48.856;9.088;2023-01-10T06:19:23;6.87;;;1.70;;
42600;SDS011;28229;48.856;9.088;2023-01-10T06:21:49;7.00;;;2.10;;
42600;SDS011;28229;48.856;9.088;2023-01-10T06:24:15;9.13;;;2.00;;
42600;SDS011;28229;48.856;9.088;2023-01-10T06:26:41;8.30;;;2.10;;
42600;SDS011;28229;48.856;9.088;2023-01-10T06:29:07;5.50;;;1.80;;
42600;SDS011;28229;48.856;9.088;2023-01-10T06:31:33;6.43;;;2.03;;
42600;SDS011;28229;48.856;9.088;2023-01-10T06:33:59;10.00;;;2.13;;
42600;SDS011;28229;48.856;9.088;2023-01-10T06:36:25;5.67;;;1.63;;
42600;SDS011;28229;48.856;9.088;2023-01-10T06:38:52;7.53;;;1.73;;
42600;SDS011;28229;48.856;9.088;2023-01-10T06:41:18;5.40;;;1.73;;
42600;SDS011;28229;48.856;9.088;2023-01-10T06:43:45;7.87;;;1.60;;
42600;SDS011;28229;48.856;9.088;2023-01-10T06:46:12;7.37;;;2.20;;
42600;SDS011;28229;48.856;9.088;2023-01-10T06:48:41;5.83;;;2.20;;
42600;SDS011;28229;48.856;9.088;2023-01-10T06:51:11;7.80;;;1.53;;
42600;SDS011;28229;48.856;9.088;2023-01-10T06:53:39;6.50;;;1.70;;
42600;SDS011;28229;48.856;9.088;2023-01-10T06:56:05;9.00;;;2.20;;
42600;SDS011;28229;48.856;9.088;2023-01-10T06:58:32;8.90;;;2.20;;
42600;SDS011;28229;48.856;9.088;2023-01-10T07:00:59;7.93;;;2.13;;
42600;SDS011;28229;48.856;9.088;2023-01-10T07:03:25;9.00;;;2.23;;
42600;SDS011;28229;48.856;9.088;2023-01-10T07:05:52;6.83;;;1.97;;
42600;SDS011;28229;48.856;9.088;2023-01-10T07:08:18;6.63;;;1.90;;
42600;SDS011;28229;48.856;9.088;2023-01-10T07:10:44;9.73;;;2.20;;
42600;SDS011;28229;48.856;9.088;2023-01-10T07:13:10;7.77;;;1.80;;
42600;SDS011;28229;48.856;9.088;2023-01-10T07:15:36;6.63;;;2.00;;
42600;SDS011;28229;48.856;9.088;2023-01-10T07:18:02;5.77;;;1.87;;
42600;SDS011;28229;48.856;9.088;2023-01-10T07:20:29;9.47;;;2.43;;
42600;SDS011;28229;48.856;9.088;2023-01-10T07:22:55;6.47;;;1.60;;
42600;SDS011;28229;48.856;9.088;2023-01-10T07:25:23;7.80;;;2.33;;
42600;SDS011;28229;48.856;9.088;2023-01-10T07:27:52;5.37;;;2.10;;
42600;SDS011;28229;48.856;9.088;2023-01-10T07:30:21;6.30;;;1.83;;
42600;SDS011;28229;48.856;9.088;2023-01-10T07:32:52;6.20;;;1.90;;
42600;SDS011;28229;48.856;9.088;2023-01-10T07:35:20;5.60;;;2.10;;
42600;SDS011;28229;48.856;9.088;2023-01-10T07:37:47;9.30;;;2.17;;
42600;SDS011;28229;48.856;9.088;2023-01-10T07:40:13;5.70;;;1.73;;
42600;SDS011;28229;48.856;9.088;2023-01-10T07:42:39;6.77;;;1.80;;
42600;SDS011;28229;48.856;9.088;2023-01-10T07:45:05;6.17;;;2.13;;
42600;SDS011;28229;48.856;9.088;2023-01-10T07:47:33;9.47;;;2.10;;
42600;SDS011;28229;48.856;9.088;2023-01-10T07:50:00;7.47;;;1.87;;
42600;SDS011;28229;48.856;9.088;2023-01-10T07:52:26;6.40;;;2.10;;
42600;SDS011;28229;48.856;9.088;2023-01-10T07:54:52;5.70;;;2.20;;
42600;SDS011;28229;48.856;9.088;2023-01-10T07:57:18;5.43;;;2.03;;
42600;SDS011;28229;48.856;9.088;2023-01-10T07:59:44;4.27;;;2.13;;
42600;SDS011;28229;48.856;9.088;2023-01-10T08:02:11;6.27;;;1.93;;
42600;SDS011;28229;48.856;9.088;2023-01-10T08:04:37;7.43;;;2.20;;
42600;SDS011;28229;48.856;9.088;2023-01-10T08:07:03;4.67;;;1.80;;
42600;SDS011;28229;48.856;9.088;2023-01-10T08:09:30;8.47;;;1.80;;
42600;SDS011;28229;48.856;9.088;2023-01-10T08:11:56;7.30;;;2.03;;
42600;SDS011;28229;48.856;9.088;2023-01-10T08:14:23;9.33;;;2.53;;
42600;SDS011;28229;48.856;9.088;2023-01-10T08:16:49;6.13;;;2.00;;
42600;SDS011;28229;48.856;9.088;2023-01-10T08:19:15;4.67;;;2.10;;
42600;SDS011;28229;48.856;9.088;2023-01-10T08:21:42;6.97;;;1.77;;
42600;SDS011;28229;48.856;9.088;2023-01-10T08:24:09;4.73;;;2.03;;
42600;SDS011;28229;48.856;9.088;2023-01-10T08:26:35;6.87;;;2.20;;
42600;SDS011;28229;48.856;9.088;2023-01-10T08:29:01;5.93;;;1.90;;
42600;SDS011;28229;48.856;9.088;2023-01-10T08:31:28;5.23;;;1.87;;
42600;SDS011;28229;48.856;9.088;2023-01-10T08:33:54;6.17;;;2.43;;
42600;SDS011;28229;48.856;9.088;2023-01-10T08:36:21;10.10;;;2.53;;
42600;SDS011;28229;48.856;9.088;2023-01-10T08:38:58;4.80;;;1.73;;
42600;SDS011;28229;48.856;9.088;2023-01-10T08:41:24;7.03;;;1.90;;
42600;SDS011;28229;48.856;9.088;2023-01-10T08:43:51;5.57;;;2.17;;
42600;SDS011;28229;48.856;9.088;2023-01-10T08:46:17;6.00;;;2.30;;
42600;SDS011;28229;48.856;9.088;2023-01-10T08:48:44;8.33;;;2.63;;
42600;SDS011;28229;48.856;9.088;2023-01-10T08:51:11;4.77;;;2.20;;
42600;SDS011;28229;48.856;9.088;2023-01-10T08:53:38;4.43;;;2.17;;
42600;SDS011;28229;48.856;9.088;2023-01-10T08:56:04;5.40;;;2.20;;
42600;SDS011;28229;48.856;9.088;2023-01-10T08:58:31;8.70;;;2.60;;
42600;SDS011;28229;48.856;9.088;2023-01-10T09:00:57;7.37;;;2.27;;
42600;SDS011;28229;48.856;9.088;2023-01-10T09:03:23;6.33;;;2.40;;
42600;SDS011;28229;48.856;9.088;2023-01-10T09:05:50;7.77;;;2.30;;
42600;SDS011;28229;48.856;9.088;2023-01-10T09:08:16;5.47;;;2.00;;
42600;SDS011;28229;48.856;9.088;2023-01-10T09:10:42;5.00;;;2.20;;
42600;SDS011;28229;48.856;9.088;2023-01-10T09:13:08;8.17;;;2.40;;
42600;SDS011;28229;48.856;9.088;2023-01-10T09:15:35;5.97;;;2.23;;
42600;SDS011;28229;48.856;9.088;2023-01-10T09:18:04;6.50;;;2.27;;
42600;SDS011;28229;48.856;9.088;2023-01-10T09:20:32;8.47;;;2.47;;
42600;SDS011;28229;48.856;9.088;2023-01-10T09:23:04;5.07;;;1.90;;
42600;SDS011;28229;48.856;9.088;2023-01-10T09:25:35;8.17;;;2.10;;
42600;SDS011;28229;48.856;9.088;2023-01-10T09:28:02;4.90;;;1.77;;
42600;SDS011;28229;48.856;9.088;2023-01-10T09:30:29;4.87;;;1.70;;
42600;SDS011;28229;48.856;9.088;2023-01-10T09:32:57;7.97;;;2.10;;
42600;SDS011;28229;48.856;9.088;2023-01-10T09:35:25;3.37;;;1.90;;
42600;SDS011;28229;48.856;9.088;2023-01-10T09:37:53;5.97;;;2.10;;
42600;SDS011;28229;48.856;9.088;2023-01-10T09:43:03;4.90;;;2.27;;
42600;SDS011;28229;48.856;9.088;2023-01-10T09:54:02;3.33;;;1.60;;
42600;SDS011;28229;48.856;9.088;2023-01-10T09:56:32;4.93;;;1.90;;
42600;SDS011;28229;48.856;9.088;2023-01-10T09:58:58;4.90;;;2.10;;
42600;SDS011;28229;48.856;9.088;2023-01-10T10:01:36;8.17;;;2.00;;
42600;SDS011;28229;48.856;9.088;2023-01-10T10:06:39;5.47;;;1.70;;
42600;SDS011;28229;48.856;9.088;2023-01-10T10:09:07;4.00;;;1.53;;
42600;SDS011;28229;48.856;9.088;2023-01-10T10:34:18;4.67;;;1.50;;
42600;SDS011;28229;48.856;9.088;2023-01-10T10:37:02;6.73;;;1.83;;
42600;SDS011;28229;48.856;9.088;2023-01-10T10:39:41;5.50;;;1.70;;
42600;SDS011;28229;48.856;9.088;2023-01-10T10:42:13;6.63;;;2.00;;
42600;SDS011;28229;48.856;9.088;2023-01-10T10:44:50;4.83;;;1.70;;
42600;SDS011;28229;48.856;9.088;2023-01-10T10:47:21;4.47;;;2.03;;
42600;SDS011;28229;48.856;9.088;2023-01-10T10:50:01;6.23;;;1.87;;
42600;SDS011;28229;48.856;9.088;2023-01-10T10:52:40;4.47;;;1.83;;
42600;SDS011;28229;48.856;9.088;2023-01-10T10:55:12;3.40;;;1.33;;
42600;SDS011;28229;48.856;9.088;2023-01-10T10:57:41;4.47;;;1.70;;
42600;SDS011;28229;48.856;9.088;2023-01-10T11:00:13;6.33;;;1.70;;
42600;SDS011;28229;48.856;9.088;2023-01-10T11:03:03;5.97;;;2.40;;
42600;SDS011;28229;48.856;9.088;2023-01-10T11:05:36;4.83;;;1.63;;
42600;SDS011;28229;48.856;9.088;2023-01-10T11:08:05;7.67;;;1.80;;
42600;SDS011;28229;48.856;9.088;2023-01-10T11:10:54;1.97;;;1.17;;
42600;SDS011;28229;48.856;9.088;2023-01-10T11:15:57;3.43;;;1.37;;
42600;SDS011;28229;48.856;9.088;2023-01-10T11:18:26;4.37;;;1.43;;
42600;SDS011;28229;48.856;9.088;2023-01-10T11:21:04;3.50;;;1.70;;
42600;SDS011;28229;48.856;9.088;2023-01-10T11:26:29;5.30;;;1.73;;
42600;SDS011;28229;48.856;9.088;2023-01-10T11:29:13;4.97;;;1.37;;
42600;SDS011;28229;48.856;9.088;2023-01-10T11:31:55;5.03;;;1.50;;
42600;SDS011;28229;48.856;9.088;2023-01-10T11:34:29;4.90;;;1.40;;
42600;SDS011;28229;48.856;9.088;2023-01-10T11:37:00;4.30;;;1.40;;
42600;SDS011;28229;48.856;9.088;2023-01-10T11:40:06;5.10;;;1.80;;
42600;SDS011;28229;48.856;9.088;2023-01-10T11:42:44;4.97;;;1.70;;
42600;SDS011;28229;48.856;9.088;2023-01-10T11:45:18;6.47;;;1.90;;
42600;SDS011;28229;48.856;9.088;2023-01-10T11:47:47;2.80;;;1.30;;
42600;SDS011;28229;48.856;9.088;2023-01-10T11:50:26;6.07;;;1.90;;
42600;SDS011;28229;48.856;9.088;2023-01-10T11:52:54;7.00;;;1.60;;
42600;SDS011;28229;48.856;9.088;2023-01-10T11:55:30;7.43;;;1.90;;
42600;SDS011;28229;48.856;9.088;2023-01-10T11:58:01;4.43;;;1.83;;
42600;SDS011;28229;48.856;9.088;2023-01-10T12:03:35;6.07;;;1.67;;
42600;SDS011;28229;48.856;9.088;2023-01-10T12:06:05;4.13;;;1.37;;
42600;SDS011;28229;48.856;9.088;2023-01-10T12:08:34;4.50;;;1.70;;
42600;SDS011;28229;48.856;9.088;2023-01-10T12:16:24;4.20;;;1.53;;
42600;SDS011;28229;48.856;9.088;2023-01-10T12:18:50;6.07;;;1.73;;
42600;SDS011;28229;48.856;9.088;2023-01-10T12:21:20;5.90;;;1.50;;
42600;SDS011;28229;48.856;9.088;2023-01-10T12:23:52;3.03;;;1.33;;
42600;SDS011;28229;48.856;9.088;2023-01-10T12:26:21;5.97;;;1.90;;
42600;SDS011;28229;48.856;9.088;2023-01-10T12:28:51;7.77;;;1.53;;
42600;SDS011;28229;48.856;9.088;2023-01-10T12:31:22;4.87;;;1.30;;
42600;SDS011;28229;48.856;9.088;2023-01-10T12:33:56;2.57;;;1.47;;
42600;SDS011;28229;48.856;9.088;2023-01-10T12:39:12;7.23;;;1.60;;
42600;SDS011;28229;48.856;9.088;2023-01-10T12:41:56;3.93;;;1.27;;
42600;SDS011;28229;48.856;9.088;2023-01-10T12:44:49;4.23;;;1.60;;
42600;SDS011;28229;48.856;9.088;2023-01-10T12:47:23;1.90;;;1.23;;
42600;SDS011;28229;48.856;9.088;2023-01-10T12:50:02;4.47;;;1.30;;
42600;SDS011;28229;48.856;9.088;2023-01-10T12:52:56;2.93;;;1.30;;
42600;SDS011;28229;48.856;9.088;2023-01-10T12:55:29;5.40;;;1.20;;
42600;SDS011;28229;48.856;9.088;2023-01-10T12:58:00;3.73;;;1.20;;
42600;SDS011;28229;48.856;9.088;2023-01-10T13:00:33;2.40;;;1.20;;
42600;SDS011;28229;48.856;9.088;2023-01-10T13:03:05;3.63;;;1.10;;
42600;SDS011;28229;48.856;9.088;2023-01-10T13:05:40;4.87;;;1.27;;
42600;SDS011;28229;48.856;9.088;2023-01-10T13:08:11;5.23;;;1.40;;
42600;SDS011;28229;48.856;9.088;2023-01-10T13:10:40;3.77;;;1.30;;
42600;SDS011;28229;48.856;9.088;2023-01-10T13:15:50;5.90;;;1.50;;
42600;SDS011;28229;48.856;9.088;2023-01-10T13:18:23;3.27;;;1.03;;
42600;SDS011;28229;48.856;9.088;2023-01-10T13:21:10;5.03;;;1.20;;
42600;SDS011;28229;48.856;9.088;2023-01-10T13:23:45;2.53;;;1.17;;
42600;SDS011;28229;48.856;9.088;2023-01-10T13:26:17;6.93;;;1.33;;
42600;SDS011;28229;48.856;9.088;2023-01-10T13:28:56;3.13;;;1.20;;
42600;SDS011;28229;48.856;9.088;2023-01-10T13:31:28;4.47;;;1.20;;
42600;SDS011;28229;48.856;9.088;2023-01-10T13:33:59;4.77;;;1.27;;
42600;SDS011;28229;48.856;9.088;2023-01-10T13:36:35;4.77;;;1.30;;
42600;SDS011;28229;48.856;9.088;2023-01-10T13:39:05;3.47;;;1.20;;
42600;SDS011;28229;48.856;9.088;2023-01-10T13:58:18;12.13;;;1.30;;
42600;SDS011;28229;48.856;9.088;2023-01-10T14:01:21;2.97;;;1.40;;
42600;SDS011;28229;48.856;9.088;2023-01-10T14:04:23;3.43;;;1.10;;
42600;SDS011;28229;48.856;9.088;2023-01-10T14:06:59;5.30;;;1.53;;
42600;SDS011;28229;48.856;9.088;2023-01-10T14:09:42;3.47;;;1.37;;
42600;SDS011;28229;48.856;9.088;2023-01-10T14:14:49;5.13;;;1.77;;
42600;SDS011;28229;48.856;9.088;2023-01-10T14:17:28;3.57;;;1.30;;
42600;SDS011;28229;48.856;9.088;2023-01-10T14:25:34;4.67;;;1.40;;
42600;SDS011;28229;48.856;9.088;2023-01-10T14:28:04;3.23;;;1.10;;
42600;SDS011;28229;48.856;9.088;2023-01-10T14:30:40;3.67;;;1.10;;
42600;SDS011;28229;48.856;9.088;2023-01-10T14:33:14;4.27;;;1.40;;
42600;SDS011;28229;48.856;9.088;2023-01-10T14:35:45;4.20;;;1.40;;
42600;SDS011;28229;48.856;9.088;2023-01-10T14:38:17;4.10;;;1.70;;
42600;SDS011;28229;48.856;9.088;2023-01-10T14:40:49;2.90;;;1.33;;
42600;SDS011;28229;48.856;9.088;2023-01-10T14:43:22;6.93;;;1.97;;
42600;SDS011;28229;48.856;9.088;2023-01-10T14:46:10;3.80;;;1.47;;
42600;SDS011;28229;48.856;9.088;2023-01-10T14:48:45;4.70;;;1.40;;
42600;SDS011;28229;48.856;9.088;2023-01-10T14:51:17;4.20;;;1.40;;
42600;SDS011;28229;48.856;9.088;2023-01-10T14:54:12;3.83;;;1.70;;
42600;SDS011;28229;48.856;9.088;2023-01-10T14:56:43;4.67;;;1.40;;
42600;SDS011;28229;48.856;9.088;2023-01-10T14:59:15;2.97;;;1.97;;
42600;SDS011;28229;48.856;9.088;2023-01-10T15:01:49;3.17;;;1.33;;
42600;SDS011;28229;48.856;9.088;2023-01-10T15:04:20;3.90;;;1.43;;
42600;SDS011;28229;48.856;9.088;2023-01-10T15:06:58;3.10;;;1.43;;
42600;SDS011;28229;48.856;9.088;2023-01-10T15:09:28;4.83;;;2.47;;
42600;SDS011;28229;48.856;9.088;2023-01-10T15:11:58;4.47;;;2.20;;
42600;SDS011;28229;48.856;9.088;2023-01-10T15:14:26;7.20;;;4.87;;
42600;SDS011;28229;48.856;9.088;2023-01-10T15:16:56;7.80;;;4.47;;
42600;SDS011;28229;48.856;9.088;2023-01-10T15:19:28;4.37;;;2.07;;
42600;SDS011;28229;48.856;9.088;2023-01-10T15:22:00;3.20;;;1.53;;
42600;SDS011;28229;48.856;9.088;2023-01-10T15:24:30;3.27;;;1.90;;
42600;SDS011;28229;48.856;9.088;2023-01-10T15:27:02;4.53;;;1.73;;
42600;SDS011;28229;48.856;9.088;2023-01-10T15:29:30;3.33;;;2.00;;
42600;SDS011;28229;48.856;9.088;2023-01-10T15:32:07;3.50;;;1.50;;
42600;SDS011;28229;48.856;9.088;2023-01-10T15:34:36;3.27;;;1.60;;
42600;SDS011;28229;48.856;9.088;2023-01-10T15:37:04;4.53;;;1.67;;
42600;SDS011;28229;48.856;9.088;2023-01-10T15:39:36;4.47;;;1.40;;
42600;SDS011;28229;48.856;9.088;2023-01-10T15:42:05;3.40;;;1.70;;
42600;SDS011;28229;48.856;9.088;2023-01-10T15:50:43;2.77;;;1.43;;
42600;SDS011;28229;48.856;9.088;2023-01-10T15:53:05;3.67;;;1.77;;
42600;SDS011;28229;48.856;9.088;2023-01-10T15:55:40;4.50;;;1.60;;
42600;SDS011;28229;48.856;9.088;2023-01-10T16:00:57;4.93;;;1.70;;
42600;SDS011;28229;48.856;9.088;2023-01-10T16:03:26;3.70;;;2.03;;
42600;SDS011;28229;48.856;9.088;2023-01-10T16:05:57;5.83;;;1.80;;
42600;SDS011;28229;48.856;9.088;2023-01-10T16:08:31;6.07;;;1.87;;
42600;SDS011;28229;48.856;9.088;2023-01-10T16:11:00;4.57;;;2.30;;
42600;SDS011;28229;48.856;9.088;2023-01-10T16:13:29;5.73;;;1.47;;
42600;SDS011;28229;48.856;9.088;2023-01-10T16:16:00;5.70;;;1.70;;
42600;SDS011;28229;48.856;9.088;2023-01-10T16:18:30;6.70;;;2.17;;
42600;SDS011;28229;48.856;9.088;2023-01-10T16:20:56;5.77;;;2.00;;
42600;SDS011;28229;48.856;9.088;2023-01-10T16:23:27;5.30;;;2.23;;
42600;SDS011;28229;48.856;9.088;2023-01-10T16:26:01;5.60;;;1.63;;
42600;SDS011;28229;48.856;9.088;2023-01-10T16:28:31;4.73;;;2.00;;
42600;SDS011;28229;48.856;9.088;2023-01-10T16:31:01;10.97;;;4.83;;
42600;SDS011;28229;48.856;9.088;2023-01-10T16:33:31;5.70;;;2.07;;
42600;SDS011;28229;48.856;9.088;2023-01-10T16:35:58;6.77;;;2.60;;
42600;SDS011;28229;48.856;9.088;2023-01-10T16:38:25;5.60;;;2.33;;
42600;SDS011;28229;48.856;9.088;2023-01-10T16:40:57;4.73;;;2.23;;
42600;SDS011;28229;48.856;9.088;2023-01-10T16:43:26;7.37;;;2.60;;
42600;SDS011;28229;48.856;9.088;2023-01-10T16:45:54;6.77;;;2.87;;
42600;SDS011;28229;48.856;9.088;2023-01-10T16:48:26;6.33;;;2.20;;
42600;SDS011;28229;48.856;9.088;2023-01-10T16:50:53;5.23;;;2.00;;
42600;SDS011;28229;48.856;9.088;2023-01-10T16:53:19;5.00;;;2.20;;
42600;SDS011;28229;48.856;9.088;2023-01-10T16:55:49;4.83;;;2.00;;
42600;SDS011;28229;48.856;9.088;2023-01-10T16:58:18;6.27;;;2.40;;
42600;SDS011;28229;48.856;9.088;2023-01-10T17:00:48;5.70;;;2.77;;
42600;SDS011;28229;48.856;9.088;2023-01-10T17:03:20;7.27;;;2.60;;